Terminal Aerodrome Forecast
Issued by NWS Sioux Falls, SD

Home | Current Version | Previous Version | Graphics & Text | Print | Product List | Glossary Off
Versions: 1 2 3 4 5 6 7 8 9 10 11 12 13 14 15 16 17 18 19 20 21 22 23 24 25 26 27 28 29

000
FTUS43 KFSD 010520
TAFSUX
TAF
KSUX 010520Z 0106/0206 12007KT P6SM SCT200
     FM011100 12004KT 4SM BR FEW003 SCT200
     FM011400 18008KT P6SM SCT200
     FM011800 19013G18KT P6SM BKN200
     FM020000 15009KT P6SM BKN080=

USA.gov is the U.S. government's official web portal to all federal, state and local government web resources and services.